sensor_id;sensor_type;location;lat;lon;timestamp;P1;durP1;ratioP1;P2;durP2;ratioP2
7575;SDS011;3829;50.798;4.358;2023-04-24T00:02:22;25.60;;;9.63;;
7575;SDS011;3829;50.798;4.358;2023-04-24T00:04:48;16.70;;;9.93;;
7575;SDS011;3829;50.798;4.358;2023-04-24T00:07:14;20.60;;;9.90;;
7575;SDS011;3829;50.798;4.358;2023-04-24T00:09:41;20.83;;;10.80;;
7575;SDS011;3829;50.798;4.358;2023-04-24T00:12:08;23.33;;;9.93;;
7575;SDS011;3829;50.798;4.358;2023-04-24T00:14:34;19.87;;;10.33;;
7575;SDS011;3829;50.798;4.358;2023-04-24T00:17:00;15.80;;;9.63;;
7575;SDS011;3829;50.798;4.358;2023-04-24T00:19:27;21.60;;;9.83;;
7575;SDS011;3829;50.798;4.358;2023-04-24T00:21:53;21.07;;;10.43;;
7575;SDS011;3829;50.798;4.358;2023-04-24T00:24:19;19.53;;;10.53;;
7575;SDS011;3829;50.798;4.358;2023-04-24T00:26:45;25.47;;;10.30;;
7575;SDS011;3829;50.798;4.358;2023-04-24T00:29:11;22.50;;;10.27;;
7575;SDS011;3829;50.798;4.358;2023-04-24T00:31:37;17.30;;;9.87;;
7575;SDS011;3829;50.798;4.358;2023-04-24T00:34:03;21.57;;;10.73;;
7575;SDS011;3829;50.798;4.358;2023-04-24T00:36:29;18.80;;;9.93;;
7575;SDS011;3829;50.798;4.358;2023-04-24T00:38:55;17.63;;;9.53;;
7575;SDS011;3829;50.798;4.358;2023-04-24T00:41:21;17.73;;;10.57;;
7575;SDS011;3829;50.798;4.358;2023-04-24T00:43:47;20.37;;;9.87;;
7575;SDS011;3829;50.798;4.358;2023-04-24T00:46:14;23.80;;;10.60;;
7575;SDS011;3829;50.798;4.358;2023-04-24T00:48:40;20.30;;;10.43;;
7575;SDS011;3829;50.798;4.358;2023-04-24T00:51:06;22.23;;;10.67;;
7575;SDS011;3829;50.798;4.358;2023-04-24T00:53:32;20.37;;;10.87;;
7575;SDS011;3829;50.798;4.358;2023-04-24T00:55:58;20.80;;;10.70;;
7575;SDS011;3829;50.798;4.358;2023-04-24T00:58:24;18.50;;;11.10;;
7575;SDS011;3829;50.798;4.358;2023-04-24T01:00:50;17.03;;;10.33;;
7575;SDS011;3829;50.798;4.358;2023-04-24T01:03:19;18.57;;;11.20;;
7575;SDS011;3829;50.798;4.358;2023-04-24T01:05:46;25.77;;;10.23;;
7575;SDS011;3829;50.798;4.358;2023-04-24T01:08:12;18.83;;;10.23;;
7575;SDS011;3829;50.798;4.358;2023-04-24T01:10:39;21.73;;;10.50;;
7575;SDS011;3829;50.798;4.358;2023-04-24T01:13:06;24.40;;;11.30;;
7575;SDS011;3829;50.798;4.358;2023-04-24T01:15:33;24.90;;;11.03;;
7575;SDS011;3829;50.798;4.358;2023-04-24T01:17:59;22.40;;;10.47;;
7575;SDS011;3829;50.798;4.358;2023-04-24T01:20:25;27.47;;;10.77;;
7575;SDS011;3829;50.798;4.358;2023-04-24T01:22:51;23.40;;;11.87;;
7575;SDS011;3829;50.798;4.358;2023-04-24T01:25:17;21.30;;;11.33;;
7575;SDS011;3829;50.798;4.358;2023-04-24T01:27:43;22.73;;;11.43;;
7575;SDS011;3829;50.798;4.358;2023-04-24T01:30:09;19.37;;;10.47;;
7575;SDS011;3829;50.798;4.358;2023-04-24T01:32:36;21.70;;;9.87;;
7575;SDS011;3829;50.798;4.358;2023-04-24T01:35:02;21.83;;;10.77;;
7575;SDS011;3829;50.798;4.358;2023-04-24T01:37:28;20.20;;;10.57;;
7575;SDS011;3829;50.798;4.358;2023-04-24T01:39:54;22.07;;;10.60;;
7575;SDS011;3829;50.798;4.358;2023-04-24T01:42:20;19.83;;;10.43;;
7575;SDS011;3829;50.798;4.358;2023-04-24T01:44:46;19.13;;;11.20;;
7575;SDS011;3829;50.798;4.358;2023-04-24T01:47:12;23.70;;;11.53;;
7575;SDS011;3829;50.798;4.358;2023-04-24T01:49:38;22.50;;;12.77;;
7575;SDS011;3829;50.798;4.358;2023-04-24T01:52:04;20.20;;;12.50;;
7575;SDS011;3829;50.798;4.358;2023-04-24T01:54:31;26.43;;;12.93;;
7575;SDS011;3829;50.798;4.358;2023-04-24T01:56:57;27.70;;;12.43;;
7575;SDS011;3829;50.798;4.358;2023-04-24T01:59:22;20.83;;;12.40;;
7575;SDS011;3829;50.798;4.358;2023-04-24T02:01:50;22.43;;;14.17;;
7575;SDS011;3829;50.798;4.358;2023-04-24T02:04:15;24.17;;;13.70;;
7575;SDS011;3829;50.798;4.358;2023-04-24T02:06:41;21.97;;;13.43;;
7575;SDS011;3829;50.798;4.358;2023-04-24T02:09:06;23.13;;;13.60;;
7575;SDS011;3829;50.798;4.358;2023-04-24T02:11:32;22.60;;;13.67;;
7575;SDS011;3829;50.798;4.358;2023-04-24T02:13:58;24.63;;;13.20;;
7575;SDS011;3829;50.798;4.358;2023-04-24T02:16:23;29.47;;;14.80;;
7575;SDS011;3829;50.798;4.358;2023-04-24T02:18:49;22.07;;;14.03;;
7575;SDS011;3829;50.798;4.358;2023-04-24T02:21:15;26.73;;;14.27;;
7575;SDS011;3829;50.798;4.358;2023-04-24T02:23:40;26.97;;;14.07;;
7575;SDS011;3829;50.798;4.358;2023-04-24T02:26:06;24.83;;;13.70;;
7575;SDS011;3829;50.798;4.358;2023-04-24T02:28:32;22.33;;;14.47;;
7575;SDS011;3829;50.798;4.358;2023-04-24T02:30:57;22.67;;;13.33;;
7575;SDS011;3829;50.798;4.358;2023-04-24T02:33:23;28.03;;;13.70;;
7575;SDS011;3829;50.798;4.358;2023-04-24T02:35:49;22.33;;;13.80;;
7575;SDS011;3829;50.798;4.358;2023-04-24T02:38:14;26.33;;;14.00;;
7575;SDS011;3829;50.798;4.358;2023-04-24T02:40:40;26.90;;;12.70;;
7575;SDS011;3829;50.798;4.358;2023-04-24T02:43:05;26.33;;;13.83;;
7575;SDS011;3829;50.798;4.358;2023-04-24T02:45:31;26.93;;;13.23;;
7575;SDS011;3829;50.798;4.358;2023-04-24T02:47:59;23.47;;;13.60;;
7575;SDS011;3829;50.798;4.358;2023-04-24T02:50:25;29.13;;;13.43;;
7575;SDS011;3829;50.798;4.358;2023-04-24T02:52:50;20.87;;;12.07;;
7575;SDS011;3829;50.798;4.358;2023-04-24T02:55:16;24.87;;;13.10;;
7575;SDS011;3829;50.798;4.358;2023-04-24T02:57:41;23.77;;;10.63;;
7575;SDS011;3829;50.798;4.358;2023-04-24T03:00:07;20.90;;;11.50;;
7575;SDS011;3829;50.798;4.358;2023-04-24T03:02:34;21.23;;;10.80;;
7575;SDS011;3829;50.798;4.358;2023-04-24T03:04:59;18.93;;;10.67;;
7575;SDS011;3829;50.798;4.358;2023-04-24T03:07:28;21.43;;;10.97;;
7575;SDS011;3829;50.798;4.358;2023-04-24T03:09:54;17.10;;;9.43;;
7575;SDS011;3829;50.798;4.358;2023-04-24T03:12:19;20.00;;;10.50;;
7575;SDS011;3829;50.798;4.358;2023-04-24T03:14:45;16.47;;;9.40;;
7575;SDS011;3829;50.798;4.358;2023-04-24T03:17:10;15.77;;;9.13;;
7575;SDS011;3829;50.798;4.358;2023-04-24T03:19:36;16.03;;;9.20;;
7575;SDS011;3829;50.798;4.358;2023-04-24T03:22:02;14.73;;;7.33;;
7575;SDS011;3829;50.798;4.358;2023-04-24T03:24:28;15.23;;;9.83;;
7575;SDS011;3829;50.798;4.358;2023-04-24T03:26:54;22.30;;;11.07;;
7575;SDS011;3829;50.798;4.358;2023-04-24T03:29:21;18.93;;;10.10;;
7575;SDS011;3829;50.798;4.358;2023-04-24T03:31:47;18.20;;;10.43;;
7575;SDS011;3829;50.798;4.358;2023-04-24T03:34:12;17.90;;;10.63;;
7575;SDS011;3829;50.798;4.358;2023-04-24T03:36:38;16.37;;;10.33;;
7575;SDS011;3829;50.798;4.358;2023-04-24T03:39:03;20.27;;;12.00;;
7575;SDS011;3829;50.798;4.358;2023-04-24T03:41:29;15.53;;;10.53;;
7575;SDS011;3829;50.798;4.358;2023-04-24T03:43:55;17.77;;;10.30;;
7575;SDS011;3829;50.798;4.358;2023-04-24T03:46:21;18.40;;;9.73;;
7575;SDS011;3829;50.798;4.358;2023-04-24T03:48:46;15.57;;;9.13;;
7575;SDS011;3829;50.798;4.358;2023-04-24T03:51:12;17.00;;;10.03;;
7575;SDS011;3829;50.798;4.358;2023-04-24T03:53:37;19.40;;;9.60;;
7575;SDS011;3829;50.798;4.358;2023-04-24T03:56:03;14.23;;;8.77;;
7575;SDS011;3829;50.798;4.358;2023-04-24T03:58:28;9.43;;;6.93;;
7575;SDS011;3829;50.798;4.358;2023-04-24T04:00:54;12.37;;;7.57;;
7575;SDS011;3829;50.798;4.358;2023-04-24T04:03:21;11.10;;;7.27;;
7575;SDS011;3829;50.798;4.358;2023-04-24T04:05:47;11.20;;;7.47;;
7575;SDS011;3829;50.798;4.358;2023-04-24T04:08:13;13.10;;;7.77;;
7575;SDS011;3829;50.798;4.358;2023-04-24T04:10:38;12.27;;;7.17;;
7575;SDS011;3829;50.798;4.358;2023-04-24T04:13:04;10.90;;;7.10;;
7575;SDS011;3829;50.798;4.358;2023-04-24T04:15:31;15.97;;;7.50;;
7575;SDS011;3829;50.798;4.358;2023-04-24T04:17:57;14.90;;;6.70;;
7575;SDS011;3829;50.798;4.358;2023-04-24T04:20:22;11.90;;;6.97;;
7575;SDS011;3829;50.798;4.358;2023-04-24T04:22:48;8.80;;;6.20;;
7575;SDS011;3829;50.798;4.358;2023-04-24T04:25:13;12.13;;;6.70;;
7575;SDS011;3829;50.798;4.358;2023-04-24T04:27:39;9.70;;;6.73;;
7575;SDS011;3829;50.798;4.358;2023-04-24T04:30:06;13.63;;;6.87;;
7575;SDS011;3829;50.798;4.358;2023-04-24T04:32:33;11.10;;;6.40;;
7575;SDS011;3829;50.798;4.358;2023-04-24T04:34:59;10.03;;;6.73;;
7575;SDS011;3829;50.798;4.358;2023-04-24T04:37:29;13.37;;;7.30;;
7575;SDS011;3829;50.798;4.358;2023-04-24T04:39:56;10.93;;;6.77;;
7575;SDS011;3829;50.798;4.358;2023-04-24T04:42:23;9.60;;;6.67;;
7575;SDS011;3829;50.798;4.358;2023-04-24T04:44:49;14.13;;;7.27;;
7575;SDS011;3829;50.798;4.358;2023-04-24T04:47:15;12.87;;;8.07;;
7575;SDS011;3829;50.798;4.358;2023-04-24T04:49:42;12.17;;;7.53;;
7575;SDS011;3829;50.798;4.358;2023-04-24T04:52:08;17.77;;;8.77;;
7575;SDS011;3829;50.798;4.358;2023-04-24T04:54:34;15.13;;;9.10;;
7575;SDS011;3829;50.798;4.358;2023-04-24T04:56:59;19.17;;;9.23;;
7575;SDS011;3829;50.798;4.358;2023-04-24T04:59:26;19.67;;;9.87;;
7575;SDS011;3829;50.798;4.358;2023-04-24T05:01:52;14.27;;;8.70;;
7575;SDS011;3829;50.798;4.358;2023-04-24T05:04:17;18.03;;;10.13;;
7575;SDS011;3829;50.798;4.358;2023-04-24T05:06:43;18.70;;;9.90;;
7575;SDS011;3829;50.798;4.358;2023-04-24T05:09:09;20.27;;;11.37;;
7575;SDS011;3829;50.798;4.358;2023-04-24T05:11:35;18.77;;;11.47;;
7575;SDS011;3829;50.798;4.358;2023-04-24T05:14:00;19.60;;;11.43;;
7575;SDS011;3829;50.798;4.358;2023-04-24T05:16:26;20.00;;;11.37;;
7575;SDS011;3829;50.798;4.358;2023-04-24T05:18:51;22.37;;;11.80;;
7575;SDS011;3829;50.798;4.358;2023-04-24T05:21:17;26.27;;;11.37;;
7575;SDS011;3829;50.798;4.358;2023-04-24T05:23:43;22.60;;;12.33;;
7575;SDS011;3829;50.798;4.358;2023-04-24T05:26:08;21.70;;;11.90;;
7575;SDS011;3829;50.798;4.358;2023-04-24T05:28:34;24.13;;;12.70;;
7575;SDS011;3829;50.798;4.358;2023-04-24T05:31:01;20.17;;;11.23;;
7575;SDS011;3829;50.798;4.358;2023-04-24T05:33:27;19.40;;;12.77;;
7575;SDS011;3829;50.798;4.358;2023-04-24T05:35:53;23.53;;;12.57;;
7575;SDS011;3829;50.798;4.358;2023-04-24T05:38:19;24.13;;;12.33;;
7575;SDS011;3829;50.798;4.358;2023-04-24T05:40:45;24.60;;;12.73;;
7575;SDS011;3829;50.798;4.358;2023-04-24T05:43:11;26.83;;;12.73;;
7575;SDS011;3829;50.798;4.358;2023-04-24T05:45:37;27.80;;;12.23;;
7575;SDS011;3829;50.798;4.358;2023-04-24T05:48:03;20.83;;;12.17;;
7575;SDS011;3829;50.798;4.358;2023-04-24T05:50:29;21.50;;;12.77;;
7575;SDS011;3829;50.798;4.358;2023-04-24T05:52:54;21.83;;;12.20;;
7575;SDS011;3829;50.798;4.358;2023-04-24T05:55:23;20.13;;;11.93;;
7575;SDS011;3829;50.798;4.358;2023-04-24T05:57:49;21.20;;;11.50;;
7575;SDS011;3829;50.798;4.358;2023-04-24T06:00:15;24.20;;;12.73;;
7575;SDS011;3829;50.798;4.358;2023-04-24T06:02:41;23.07;;;13.20;;
7575;SDS011;3829;50.798;4.358;2023-04-24T06:05:06;23.93;;;12.60;;
7575;SDS011;3829;50.798;4.358;2023-04-24T06:07:33;19.67;;;11.33;;
7575;SDS011;3829;50.798;4.358;2023-04-24T06:09:59;26.00;;;12.00;;
7575;SDS011;3829;50.798;4.358;2023-04-24T06:12:25;23.27;;;11.93;;
7575;SDS011;3829;50.798;4.358;2023-04-24T06:14:50;24.87;;;12.47;;
7575;SDS011;3829;50.798;4.358;2023-04-24T06:17:16;24.33;;;12.83;;
7575;SDS011;3829;50.798;4.358;2023-04-24T06:19:42;21.53;;;12.37;;
7575;SDS011;3829;50.798;4.358;2023-04-24T06:22:08;21.67;;;11.03;;
7575;SDS011;3829;50.798;4.358;2023-04-24T06:24:34;25.37;;;12.10;;
7575;SDS011;3829;50.798;4.358;2023-04-24T06:26:59;27.17;;;12.57;;
7575;SDS011;3829;50.798;4.358;2023-04-24T06:29:26;25.40;;;13.30;;
7575;SDS011;3829;50.798;4.358;2023-04-24T06:31:52;25.60;;;13.13;;
7575;SDS011;3829;50.798;4.358;2023-04-24T06:34:17;23.87;;;13.50;;
7575;SDS011;3829;50.798;4.358;2023-04-24T06:36:43;28.90;;;12.97;;
7575;SDS011;3829;50.798;4.358;2023-04-24T06:39:09;24.13;;;13.40;;
7575;SDS011;3829;50.798;4.358;2023-04-24T06:41:35;25.20;;;13.50;;
7575;SDS011;3829;50.798;4.358;2023-04-24T06:44:00;31.20;;;15.70;;
7575;SDS011;3829;50.798;4.358;2023-04-24T06:46:26;28.83;;;15.47;;
7575;SDS011;3829;50.798;4.358;2023-04-24T06:48:53;21.97;;;13.80;;
7575;SDS011;3829;50.798;4.358;2023-04-24T06:51:22;29.60;;;15.23;;
7575;SDS011;3829;50.798;4.358;2023-04-24T06:53:49;36.67;;;15.37;;
7575;SDS011;3829;50.798;4.358;2023-04-24T06:56:15;31.63;;;15.57;;
7575;SDS011;3829;50.798;4.358;2023-04-24T06:58:40;23.93;;;15.53;;
7575;SDS011;3829;50.798;4.358;2023-04-24T07:01:06;28.30;;;15.30;;
7575;SDS011;3829;50.798;4.358;2023-04-24T07:03:32;30.00;;;15.57;;
7575;SDS011;3829;50.798;4.358;2023-04-24T07:05:58;34.83;;;15.50;;
7575;SDS011;3829;50.798;4.358;2023-04-24T07:08:23;34.93;;;15.67;;
7575;SDS011;3829;50.798;4.358;2023-04-24T07:10:50;34.33;;;16.00;;
7575;SDS011;3829;50.798;4.358;2023-04-24T07:13:16;32.77;;;15.00;;
7575;SDS011;3829;50.798;4.358;2023-04-24T07:15:42;32.30;;;16.93;;
7575;SDS011;3829;50.798;4.358;2023-04-24T07:18:08;32.87;;;16.47;;
7575;SDS011;3829;50.798;4.358;2023-04-24T07:20:33;34.60;;;15.80;;
7575;SDS011;3829;50.798;4.358;2023-04-24T07:22:59;29.20;;;14.23;;
7575;SDS011;3829;50.798;4.358;2023-04-24T07:25:25;30.67;;;14.37;;
7575;SDS011;3829;50.798;4.358;2023-04-24T07:27:50;27.73;;;14.23;;
7575;SDS011;3829;50.798;4.358;2023-04-24T07:30:17;27.50;;;15.17;;
7575;SDS011;3829;50.798;4.358;2023-04-24T07:32:42;27.23;;;14.57;;
7575;SDS011;3829;50.798;4.358;2023-04-24T07:35:08;28.10;;;15.40;;
7575;SDS011;3829;50.798;4.358;2023-04-24T07:37:34;39.23;;;16.10;;
7575;SDS011;3829;50.798;4.358;2023-04-24T07:40:00;27.67;;;14.77;;
7575;SDS011;3829;50.798;4.358;2023-04-24T07:42:26;24.70;;;14.47;;
7575;SDS011;3829;50.798;4.358;2023-04-24T07:44:52;29.67;;;14.60;;
7575;SDS011;3829;50.798;4.358;2023-04-24T07:47:18;29.30;;;14.50;;
7575;SDS011;3829;50.798;4.358;2023-04-24T07:49:44;27.20;;;14.50;;
7575;SDS011;3829;50.798;4.358;2023-04-24T07:52:10;26.33;;;13.90;;
7575;SDS011;3829;50.798;4.358;2023-04-24T07:54:35;29.33;;;13.87;;
7575;SDS011;3829;50.798;4.358;2023-04-24T07:57:02;25.90;;;14.20;;
7575;SDS011;3829;50.798;4.358;2023-04-24T07:59:28;27.27;;;14.27;;
7575;SDS011;3829;50.798;4.358;2023-04-24T08:01:53;22.97;;;12.87;;
7575;SDS011;3829;50.798;4.358;2023-04-24T08:04:19;23.87;;;13.37;;
7575;SDS011;3829;50.798;4.358;2023-04-24T08:06:46;19.73;;;12.63;;
7575;SDS011;3829;50.798;4.358;2023-04-24T08:09:12;22.80;;;11.90;;
7575;SDS011;3829;50.798;4.358;2023-04-24T08:11:38;22.33;;;10.37;;
7575;SDS011;3829;50.798;4.358;2023-04-24T08:14:03;30.80;;;11.13;;
7575;SDS011;3829;50.798;4.358;2023-04-24T08:16:29;13.60;;;7.60;;
7575;SDS011;3829;50.798;4.358;2023-04-24T08:18:55;13.47;;;7.77;;
7575;SDS011;3829;50.798;4.358;2023-04-24T08:21:20;18.17;;;8.70;;
7575;SDS011;3829;50.798;4.358;2023-04-24T08:23:46;15.10;;;8.77;;
7575;SDS011;3829;50.798;4.358;2023-04-24T08:26:12;21.07;;;8.90;;
7575;SDS011;3829;50.798;4.358;2023-04-24T08:28:38;17.43;;;8.87;;
7575;SDS011;3829;50.798;4.358;2023-04-24T08:31:04;20.77;;;9.53;;
7575;SDS011;3829;50.798;4.358;2023-04-24T08:33:30;20.43;;;7.97;;
7575;SDS011;3829;50.798;4.358;2023-04-24T08:36:00;15.27;;;7.93;;
7575;SDS011;3829;50.798;4.358;2023-04-24T08:38:27;19.67;;;8.33;;
7575;SDS011;3829;50.798;4.358;2023-04-24T08:40:53;16.50;;;7.97;;
7575;SDS011;3829;50.798;4.358;2023-04-24T08:43:19;13.33;;;7.30;;
7575;SDS011;3829;50.798;4.358;2023-04-24T08:45:47;13.83;;;7.17;;
7575;SDS011;3829;50.798;4.358;2023-04-24T08:48:13;12.50;;;7.23;;
7575;SDS011;3829;50.798;4.358;2023-04-24T08:50:40;16.50;;;7.27;;
7575;SDS011;3829;50.798;4.358;2023-04-24T08:53:08;11.40;;;6.50;;
7575;SDS011;3829;50.798;4.358;2023-04-24T08:55:34;10.20;;;6.00;;
7575;SDS011;3829;50.798;4.358;2023-04-24T08:58:00;16.03;;;6.60;;
7575;SDS011;3829;50.798;4.358;2023-04-24T09:00:27;14.87;;;5.80;;
7575;SDS011;3829;50.798;4.358;2023-04-24T09:02:53;12.80;;;5.97;;
7575;SDS011;3829;50.798;4.358;2023-04-24T09:05:21;10.57;;;5.53;;
7575;SDS011;3829;50.798;4.358;2023-04-24T09:07:52;11.23;;;6.07;;
7575;SDS011;3829;50.798;4.358;2023-04-24T09:10:20;15.90;;;6.43;;
7575;SDS011;3829;50.798;4.358;2023-04-24T09:12:51;10.97;;;5.57;;
7575;SDS011;3829;50.798;4.358;2023-04-24T09:15:18;8.97;;;5.07;;
7575;SDS011;3829;50.798;4.358;2023-04-24T09:17:45;9.43;;;4.93;;
7575;SDS011;3829;50.798;4.358;2023-04-24T09:20:11;7.80;;;4.07;;
7575;SDS011;3829;50.798;4.358;2023-04-24T09:22:37;9.27;;;5.07;;
7575;SDS011;3829;50.798;4.358;2023-04-24T09:25:03;9.83;;;3.93;;
7575;SDS011;3829;50.798;4.358;2023-04-24T09:27:32;11.03;;;4.10;;
7575;SDS011;3829;50.798;4.358;2023-04-24T09:29:58;8.40;;;5.00;;
7575;SDS011;3829;50.798;4.358;2023-04-24T09:32:25;10.43;;;5.37;;
7575;SDS011;3829;50.798;4.358;2023-04-24T09:37:35;9.20;;;5.47;;
7575;SDS011;3829;50.798;4.358;2023-04-24T09:42:43;11.03;;;5.03;;
7575;SDS011;3829;50.798;4.358;2023-04-24T09:45:11;10.90;;;4.70;;
7575;SDS011;3829;50.798;4.358;2023-04-24T09:47:37;9.63;;;4.17;;
7575;SDS011;3829;50.798;4.358;2023-04-24T09:52:43;7.90;;;4.17;;
7575;SDS011;3829;50.798;4.358;2023-04-24T09:55:11;10.27;;;4.93;;
7575;SDS011;3829;50.798;4.358;2023-04-24T09:57:46;7.63;;;4.23;;
7575;SDS011;3829;50.798;4.358;2023-04-24T10:00:17;9.80;;;4.13;;
7575;SDS011;3829;50.798;4.358;2023-04-24T10:02:43;9.00;;;4.23;;
7575;SDS011;3829;50.798;4.358;2023-04-24T10:05:10;5.47;;;3.53;;
7575;SDS011;3829;50.798;4.358;2023-04-24T10:07:37;7.33;;;4.10;;
7575;SDS011;3829;50.798;4.358;2023-04-24T10:10:03;9.97;;;4.10;;
7575;SDS011;3829;50.798;4.358;2023-04-24T10:12:30;11.03;;;4.50;;
7575;SDS011;3829;50.798;4.358;2023-04-24T10:14:56;8.23;;;3.90;;
7575;SDS011;3829;50.798;4.358;2023-04-24T10:17:23;8.10;;;3.50;;
7575;SDS011;3829;50.798;4.358;2023-04-24T10:19:50;7.53;;;3.80;;
7575;SDS011;3829;50.798;4.358;2023-04-24T10:22:16;6.43;;;3.93;;
7575;SDS011;3829;50.798;4.358;2023-04-24T10:24:43;10.67;;;4.20;;
7575;SDS011;3829;50.798;4.358;2023-04-24T10:27:10;7.97;;;4.10;;
7575;SDS011;3829;50.798;4.358;2023-04-24T10:29:37;6.63;;;4.20;;
7575;SDS011;3829;50.798;4.358;2023-04-24T10:32:06;10.63;;;4.70;;
7575;SDS011;3829;50.798;4.358;2023-04-24T10:34:32;14.47;;;4.90;;
7575;SDS011;3829;50.798;4.358;2023-04-24T10:36:58;7.47;;;3.93;;
7575;SDS011;3829;50.798;4.358;2023-04-24T10:39:23;10.13;;;4.17;;
7575;SDS011;3829;50.798;4.358;2023-04-24T10:41:49;11.37;;;4.80;;
7575;SDS011;3829;50.798;4.358;2023-04-24T10:44:16;11.00;;;4.50;;
7575;SDS011;3829;50.798;4.358;2023-04-24T10:46:43;9.87;;;4.83;;
7575;SDS011;3829;50.798;4.358;2023-04-24T10:49:12;7.07;;;4.10;;
7575;SDS011;3829;50.798;4.358;2023-04-24T10:56:52;9.43;;;4.33;;
7575;SDS011;3829;50.798;4.358;2023-04-24T10:59:25;10.67;;;4.63;;
7575;SDS011;3829;50.798;4.358;2023-04-24T11:01:53;10.13;;;4.43;;
7575;SDS011;3829;50.798;4.358;2023-04-24T11:07:00;7.63;;;4.97;;
7575;SDS011;3829;50.798;4.358;2023-04-24T11:09:26;14.87;;;5.30;;
7575;SDS011;3829;50.798;4.358;2023-04-24T11:12:02;7.33;;;5.17;;
7575;SDS011;3829;50.798;4.358;2023-04-24T11:14:31;11.43;;;5.50;;
7575;SDS011;3829;50.798;4.358;2023-04-24T11:17:29;8.27;;;5.17;;
7575;SDS011;3829;50.798;4.358;2023-04-24T11:20:03;8.03;;;5.03;;
7575;SDS011;3829;50.798;4.358;2023-04-24T11:22:32;7.47;;;4.70;;
7575;SDS011;3829;50.798;4.358;2023-04-24T11:25:00;6.90;;;4.40;;
7575;SDS011;3829;50.798;4.358;2023-04-24T11:27:29;7.13;;;4.73;;
7575;SDS011;3829;50.798;4.358;2023-04-24T11:29:59;7.27;;;4.30;;
7575;SDS011;3829;50.798;4.358;2023-04-24T11:32:27;11.77;;;4.90;;
7575;SDS011;3829;50.798;4.358;2023-04-24T11:34:56;9.87;;;5.30;;
7575;SDS011;3829;50.798;4.358;2023-04-24T11:37:24;6.70;;;4.90;;
7575;SDS011;3829;50.798;4.358;2023-04-24T11:39:53;12.50;;;5.93;;
7575;SDS011;3829;50.798;4.358;2023-04-24T11:42:19;7.70;;;4.73;;
7575;SDS011;3829;50.798;4.358;2023-04-24T11:44:46;11.27;;;5.53;;
7575;SDS011;3829;50.798;4.358;2023-04-24T11:47:14;11.07;;;6.10;;
7575;SDS011;3829;50.798;4.358;2023-04-24T11:49:39;10.97;;;5.53;;
7575;SDS011;3829;50.798;4.358;2023-04-24T11:52:05;10.27;;;5.93;;
7575;SDS011;3829;50.798;4.358;2023-04-24T11:54:31;8.40;;;5.77;;
7575;SDS011;3829;50.798;4.358;2023-04-24T11:56:57;9.67;;;5.30;;
7575;SDS011;3829;50.798;4.358;2023-04-24T11:59:23;8.00;;;5.50;;
7575;SDS011;3829;50.798;4.358;2023-04-24T12:01:48;10.53;;;6.77;;
7575;SDS011;3829;50.798;4.358;2023-04-24T12:04:15;7.67;;;5.73;;
7575;SDS011;3829;50.798;4.358;2023-04-24T12:09:26;8.20;;;5.50;;
7575;SDS011;3829;50.798;4.358;2023-04-24T12:11:53;7.80;;;5.40;;
7575;SDS011;3829;50.798;4.358;2023-04-24T12:14:23;10.17;;;5.93;;
7575;SDS011;3829;50.798;4.358;2023-04-24T12:16:49;10.53;;;5.63;;
7575;SDS011;3829;50.798;4.358;2023-04-24T12:19:23;7.50;;;5.23;;
7575;SDS011;3829;50.798;4.358;2023-04-24T12:24:25;10.83;;;5.33;;
7575;SDS011;3829;50.798;4.358;2023-04-24T12:26:51;7.47;;;5.40;;
7575;SDS011;3829;50.798;4.358;2023-04-24T12:29:20;11.20;;;5.87;;
7575;SDS011;3829;50.798;4.358;2023-04-24T12:31:46;7.93;;;5.57;;
7575;SDS011;3829;50.798;4.358;2023-04-24T12:34:19;12.93;;;5.47;;
7575;SDS011;3829;50.798;4.358;2023-04-24T12:36:46;9.93;;;5.57;;
7575;SDS011;3829;50.798;4.358;2023-04-24T12:39:14;9.70;;;5.90;;
7575;SDS011;3829;50.798;4.358;2023-04-24T12:41:50;11.73;;;5.80;;
7575;SDS011;3829;50.798;4.358;2023-04-24T12:44:19;8.93;;;5.50;;
7575;SDS011;3829;50.798;4.358;2023-04-24T12:46:44;6.63;;;4.73;;
7575;SDS011;3829;50.798;4.358;2023-04-24T12:49:10;8.37;;;4.83;;
7575;SDS011;3829;50.798;4.358;2023-04-24T12:51:35;9.13;;;5.63;;
7575;SDS011;3829;50.798;4.358;2023-04-24T12:54:01;6.27;;;5.23;;
7575;SDS011;3829;50.798;4.358;2023-04-24T12:56:27;7.47;;;5.30;;
7575;SDS011;3829;50.798;4.358;2023-04-24T12:58:52;8.53;;;5.13;;
7575;SDS011;3829;50.798;4.358;2023-04-24T13:01:18;6.23;;;4.83;;
7575;SDS011;3829;50.798;4.358;2023-04-24T13:03:44;8.97;;;4.70;;
7575;SDS011;3829;50.798;4.358;2023-04-24T13:06:09;5.17;;;4.17;;
7575;SDS011;3829;50.798;4.358;2023-04-24T13:08:35;8.77;;;4.27;;
7575;SDS011;3829;50.798;4.358;2023-04-24T13:11:01;5.80;;;4.70;;
7575;SDS011;3829;50.798;4.358;2023-04-24T13:13:26;6.80;;;4.30;;
7575;SDS011;3829;50.798;4.358;2023-04-24T13:15:52;5.90;;;3.97;;
7575;SDS011;3829;50.798;4.358;2023-04-24T13:18:17;6.80;;;4.27;;
7575;SDS011;3829;50.798;4.358;2023-04-24T13:20:43;8.77;;;4.17;;
7575;SDS011;3829;50.798;4.358;2023-04-24T13:23:09;4.30;;;3.50;;
7575;SDS011;3829;50.798;4.358;2023-04-24T13:25:35;7.47;;;3.60;;
7575;SDS011;3829;50.798;4.358;2023-04-24T13:28:03;7.50;;;4.00;;
7575;SDS011;3829;50.798;4.358;2023-04-24T13:30:29;5.57;;;3.57;;
7575;SDS011;3829;50.798;4.358;2023-04-24T13:32:56;5.00;;;3.50;;
7575;SDS011;3829;50.798;4.358;2023-04-24T13:35:21;6.07;;;4.00;;
7575;SDS011;3829;50.798;4.358;2023-04-24T13:37:47;4.70;;;3.27;;
7575;SDS011;3829;50.798;4.358;2023-04-24T13:40:12;8.03;;;3.87;;
7575;SDS011;3829;50.798;4.358;2023-04-24T13:42:38;8.00;;;3.73;;
7575;SDS011;3829;50.798;4.358;2023-04-24T13:45:04;6.43;;;3.10;;
7575;SDS011;3829;50.798;4.358;2023-04-24T13:47:30;3.90;;;3.00;;
7575;SDS011;3829;50.798;4.358;2023-04-24T13:49:55;8.67;;;3.10;;
7575;SDS011;3829;50.798;4.358;2023-04-24T13:52:21;3.90;;;3.23;;
7575;SDS011;3829;50.798;4.358;2023-04-24T13:54:47;3.67;;;2.97;;
7575;SDS011;3829;50.798;4.358;2023-04-24T13:57:13;9.07;;;3.30;;
7575;SDS011;3829;50.798;4.358;2023-04-24T13:59:39;6.17;;;2.97;;
7575;SDS011;3829;50.798;4.358;2023-04-24T14:02:05;6.47;;;3.13;;
7575;SDS011;3829;50.798;4.358;2023-04-24T14:04:30;6.10;;;3.67;;
7575;SDS011;3829;50.798;4.358;2023-04-24T14:06:56;5.40;;;2.90;;
7575;SDS011;3829;50.798;4.358;2023-04-24T14:09:22;4.70;;;2.73;;
7575;SDS011;3829;50.798;4.358;2023-04-24T14:11:47;4.93;;;2.83;;
7575;SDS011;3829;50.798;4.358;2023-04-24T14:14:13;4.63;;;3.00;;
7575;SDS011;3829;50.798;4.358;2023-04-24T14:16:39;5.83;;;2.87;;
7575;SDS011;3829;50.798;4.358;2023-04-24T14:19:04;8.13;;;3.23;;
7575;SDS011;3829;50.798;4.358;2023-04-24T14:21:31;6.40;;;2.40;;
7575;SDS011;3829;50.798;4.358;2023-04-24T14:23:57;6.33;;;2.40;;
7575;SDS011;3829;50.798;4.358;2023-04-24T14:26:22;6.20;;;2.20;;
7575;SDS011;3829;50.798;4.358;2023-04-24T14:28:49;8.07;;;2.47;;
7575;SDS011;3829;50.798;4.358;2023-04-24T14:31:15;4.80;;;2.33;;
7575;SDS011;3829;50.798;4.358;2023-04-24T14:33:41;3.50;;;2.10;;
7575;SDS011;3829;50.798;4.358;2023-04-24T14:36:06;4.97;;;2.27;;
7575;SDS011;3829;50.798;4.358;2023-04-24T14:38:32;4.57;;;2.50;;
7575;SDS011;3829;50.798;4.358;2023-04-24T14:40:57;2.93;;;2.40;;
7575;SDS011;3829;50.798;4.358;2023-04-24T14:43:23;4.37;;;2.30;;
7575;SDS011;3829;50.798;4.358;2023-04-24T14:45:49;2.83;;;2.23;;
7575;SDS011;3829;50.798;4.358;2023-04-24T14:48:14;3.70;;;2.03;;
7575;SDS011;3829;50.798;4.358;2023-04-24T14:50:41;7.07;;;2.40;;
7575;SDS011;3829;50.798;4.358;2023-04-24T14:53:06;3.73;;;2.10;;
7575;SDS011;3829;50.798;4.358;2023-04-24T14:55:32;5.77;;;2.27;;
7575;SDS011;3829;50.798;4.358;2023-04-24T14:57:59;4.97;;;2.23;;
7575;SDS011;3829;50.798;4.358;2023-04-24T15:00:25;3.30;;;2.03;;
7575;SDS011;3829;50.798;4.358;2023-04-24T15:02:50;3.37;;;1.80;;
7575;SDS011;3829;50.798;4.358;2023-04-24T15:05:16;4.10;;;2.40;;
7575;SDS011;3829;50.798;4.358;2023-04-24T15:07:41;3.00;;;2.13;;
7575;SDS011;3829;50.798;4.358;2023-04-24T15:10:07;5.50;;;2.23;;
7575;SDS011;3829;50.798;4.358;2023-04-24T15:12:33;4.10;;;1.90;;
7575;SDS011;3829;50.798;4.358;2023-04-24T15:15:00;3.50;;;2.30;;
7575;SDS011;3829;50.798;4.358;2023-04-24T15:17:26;2.80;;;2.20;;